sensor_id;sensor_type;location;lat;lon;timestamp;pressure;altitude;pressure_sealevel;temperature;humidity
72855;BME280;60991;51.278;22.550;2023-03-04T00:01:06;98858.09;;;1.44;70.91
72855;BME280;60991;51.278;22.550;2023-03-04T00:02:36;98851.38;;;1.35;71.16
72855;BME280;60991;51.278;22.550;2023-03-04T00:04:06;98853.06;;;1.43;71.18
72855;BME280;60991;51.278;22.550;2023-03-04T00:05:37;98848.44;;;1.45;71.32
72855;BME280;60991;51.278;22.550;2023-03-04T00:07:07;98847.69;;;1.57;71.09
72855;BME280;60991;51.278;22.550;2023-03-04T00:08:37;98855.94;;;1.54;71.01
72855;BME280;60991;51.278;22.550;2023-03-04T00:10:08;98849.28;;;1.52;70.58
72855;BME280;60991;51.278;22.550;2023-03-04T00:11:38;98841.53;;;1.65;70.18
72855;BME280;60991;51.278;22.550;2023-03-04T00:13:08;98836.97;;;1.80;70.93
72855;BME280;60991;51.278;22.550;2023-03-04T00:14:39;98843.38;;;1.78;70.39
72855;BME280;60991;51.278;22.550;2023-03-04T00:16:10;98838.03;;;1.58;70.38
72855;BME280;60991;51.278;22.550;2023-03-04T00:17:40;98831.25;;;1.70;70.12
72855;BME280;60991;51.278;22.550;2023-03-04T00:19:10;98826.25;;;1.75;69.76
72855;BME280;60991;51.278;22.550;2023-03-04T00:20:40;98826.88;;;1.77;69.63
72855;BME280;60991;51.278;22.550;2023-03-04T00:22:10;98829.63;;;1.69;70.36
72855;BME280;60991;51.278;22.550;2023-03-04T00:23:41;98827.44;;;1.72;69.55
72855;BME280;60991;51.278;22.550;2023-03-04T00:25:11;98820.19;;;1.68;70.60
72855;BME280;60991;51.278;22.550;2023-03-04T00:26:41;98817.22;;;1.78;69.56
72855;BME280;60991;51.278;22.550;2023-03-04T00:28:11;98822.22;;;1.66;69.90
72855;BME280;60991;51.278;22.550;2023-03-04T00:29:42;98821.72;;;1.56;70.10
72855;BME280;60991;51.278;22.550;2023-03-04T00:31:12;98817.50;;;1.55;70.37
72855;BME280;60991;51.278;22.550;2023-03-04T00:32:42;98820.94;;;1.55;69.91
72855;BME280;60991;51.278;22.550;2023-03-04T00:34:12;98823.59;;;1.68;70.11
72855;BME280;60991;51.278;22.550;2023-03-04T00:35:43;98823.88;;;1.80;69.71
72855;BME280;60991;51.278;22.550;2023-03-04T00:37:13;98809.94;;;1.66;69.21
72855;BME280;60991;51.278;22.550;2023-03-04T00:38:43;98807.44;;;1.52;69.88
72855;BME280;60991;51.278;22.550;2023-03-04T00:40:13;98804.94;;;1.37;69.10
72855;BME280;60991;51.278;22.550;2023-03-04T00:41:44;98797.22;;;1.22;69.89
72855;BME280;60991;51.278;22.550;2023-03-04T00:43:14;98812.31;;;1.27;69.71
72855;BME280;60991;51.278;22.550;2023-03-04T00:44:44;98798.13;;;1.08;70.03
72855;BME280;60991;51.278;22.550;2023-03-04T00:46:15;98810.34;;;1.01;69.56
72855;BME280;60991;51.278;22.550;2023-03-04T00:47:45;98800.63;;;0.95;69.98
72855;BME280;60991;51.278;22.550;2023-03-04T00:49:15;98803.09;;;1.03;69.77
72855;BME280;60991;51.278;22.550;2023-03-04T00:50:45;98800.69;;;1.01;69.90
72855;BME280;60991;51.278;22.550;2023-03-04T00:52:15;98797.44;;;0.99;70.08
72855;BME280;60991;51.278;22.550;2023-03-04T00:53:46;98797.31;;;1.08;69.73
72855;BME280;60991;51.278;22.550;2023-03-04T00:55:16;98786.88;;;1.08;70.19
72855;BME280;60991;51.278;22.550;2023-03-04T00:56:46;98793.78;;;1.22;69.94
72855;BME280;60991;51.278;22.550;2023-03-04T00:58:16;98790.19;;;1.23;69.24
72855;BME280;60991;51.278;22.550;2023-03-04T00:59:46;98787.81;;;1.34;68.91
72855;BME280;60991;51.278;22.550;2023-03-04T01:01:17;98788.19;;;1.31;69.14
72855;BME280;60991;51.278;22.550;2023-03-04T01:02:47;98782.09;;;1.18;69.88
72855;BME280;60991;51.278;22.550;2023-03-04T01:04:17;98780.03;;;1.13;69.86
72855;BME280;60991;51.278;22.550;2023-03-04T01:05:47;98771.13;;;1.01;69.82
72855;BME280;60991;51.278;22.550;2023-03-04T01:07:18;98771.94;;;1.01;69.29
72855;BME280;60991;51.278;22.550;2023-03-04T01:08:48;98777.69;;;0.90;69.74
72855;BME280;60991;51.278;22.550;2023-03-04T01:10:18;98770.81;;;0.83;70.46
72855;BME280;60991;51.278;22.550;2023-03-04T01:11:48;98757.69;;;0.76;69.84
72855;BME280;60991;51.278;22.550;2023-03-04T01:13:18;98764.16;;;0.80;70.09
72855;BME280;60991;51.278;22.550;2023-03-04T01:14:49;98746.84;;;0.73;70.15
72855;BME280;60991;51.278;22.550;2023-03-04T01:16:19;98738.13;;;0.65;70.33
72855;BME280;60991;51.278;22.550;2023-03-04T01:17:49;98731.09;;;0.66;70.60
72855;BME280;60991;51.278;22.550;2023-03-04T01:19:19;98734.19;;;0.76;69.52
72855;BME280;60991;51.278;22.550;2023-03-04T01:20:50;98730.19;;;0.80;70.37
72855;BME280;60991;51.278;22.550;2023-03-04T01:22:20;98728.00;;;0.84;69.68
72855;BME280;60991;51.278;22.550;2023-03-04T01:23:51;98727.81;;;0.85;70.08
72855;BME280;60991;51.278;22.550;2023-03-04T01:25:21;98713.53;;;0.81;69.83
72855;BME280;60991;51.278;22.550;2023-03-04T01:26:51;98721.31;;;0.75;70.46
72855;BME280;60991;51.278;22.550;2023-03-04T01:28:22;98711.91;;;0.80;70.52
72855;BME280;60991;51.278;22.550;2023-03-04T01:29:52;98714.94;;;0.84;70.37
72855;BME280;60991;51.278;22.550;2023-03-04T01:31:22;98712.47;;;0.76;70.44
72855;BME280;60991;51.278;22.550;2023-03-04T01:32:52;98708.25;;;0.75;70.32
72855;BME280;60991;51.278;22.550;2023-03-04T01:34:23;98697.00;;;0.74;70.51
72855;BME280;60991;51.278;22.550;2023-03-04T01:35:53;98692.56;;;0.75;70.36
72855;BME280;60991;51.278;22.550;2023-03-04T01:37:23;98693.59;;;0.74;70.91
72855;BME280;60991;51.278;22.550;2023-03-04T01:38:53;98697.78;;;0.68;70.83
72855;BME280;60991;51.278;22.550;2023-03-04T01:40:24;98684.13;;;0.73;70.75
72855;BME280;60991;51.278;22.550;2023-03-04T01:41:54;98691.63;;;0.82;70.85
72855;BME280;60991;51.278;22.550;2023-03-04T01:43:28;98700.69;;;0.86;70.65
72855;BME280;60991;51.278;22.550;2023-03-04T01:44:59;98684.72;;;0.75;71.14
72855;BME280;60991;51.278;22.550;2023-03-04T01:46:30;98682.13;;;0.75;71.42
72855;BME280;60991;51.278;22.550;2023-03-04T01:48:00;98682.84;;;0.90;70.68
72855;BME280;60991;51.278;22.550;2023-03-04T01:49:30;98681.66;;;0.92;70.56
72855;BME280;60991;51.278;22.550;2023-03-04T01:51:05;98684.03;;;0.94;70.61
72855;BME280;60991;51.278;22.550;2023-03-04T01:52:39;98678.63;;;0.95;71.05
72855;BME280;60991;51.278;22.550;2023-03-04T01:54:10;98669.38;;;0.93;70.97
72855;BME280;60991;51.278;22.550;2023-03-04T01:55:40;98674.06;;;1.04;70.82
72855;BME280;60991;51.278;22.550;2023-03-04T01:57:19;98677.53;;;1.11;70.70
72855;BME280;60991;51.278;22.550;2023-03-04T01:59:16;98675.41;;;0.93;70.88
72855;BME280;60991;51.278;22.550;2023-03-04T02:00:47;98684.91;;;1.01;70.69
72855;BME280;60991;51.278;22.550;2023-03-04T02:02:17;98677.63;;;0.96;71.01
72855;BME280;60991;51.278;22.550;2023-03-04T02:03:47;98678.59;;;0.89;70.70
72855;BME280;60991;51.278;22.550;2023-03-04T02:05:18;98667.50;;;0.80;71.13
72855;BME280;60991;51.278;22.550;2023-03-04T02:06:49;98681.41;;;0.87;71.27
72855;BME280;60991;51.278;22.550;2023-03-04T02:08:22;98667.88;;;0.77;70.99
72855;BME280;60991;51.278;22.550;2023-03-04T02:09:53;98669.09;;;0.81;70.66
72855;BME280;60991;51.278;22.550;2023-03-04T02:11:23;98674.75;;;0.85;70.37
72855;BME280;60991;51.278;22.550;2023-03-04T02:12:54;98682.97;;;0.82;70.44
72855;BME280;60991;51.278;22.550;2023-03-04T02:14:24;98668.91;;;0.83;69.93
72855;BME280;60991;51.278;22.550;2023-03-04T02:15:55;98679.03;;;0.92;70.51
72855;BME280;60991;51.278;22.550;2023-03-04T02:17:26;98671.03;;;1.00;69.97
72855;BME280;60991;51.278;22.550;2023-03-04T02:18:56;98667.38;;;0.95;69.88
72855;BME280;60991;51.278;22.550;2023-03-04T02:20:37;98678.59;;;0.89;69.96
72855;BME280;60991;51.278;22.550;2023-03-04T02:22:12;98674.34;;;0.81;70.01
72855;BME280;60991;51.278;22.550;2023-03-04T02:23:54;98662.88;;;0.82;70.08
72855;BME280;60991;51.278;22.550;2023-03-04T02:25:34;98662.84;;;0.76;70.54
72855;BME280;60991;51.278;22.550;2023-03-04T02:27:06;98667.53;;;0.87;70.24
72855;BME280;60991;51.278;22.550;2023-03-04T02:28:36;98673.19;;;0.90;70.38
72855;BME280;60991;51.278;22.550;2023-03-04T02:30:07;98654.47;;;0.87;70.69
72855;BME280;60991;51.278;22.550;2023-03-04T02:31:39;98668.78;;;0.91;70.09
72855;BME280;60991;51.278;22.550;2023-03-04T02:33:16;98659.13;;;0.91;70.18
72855;BME280;60991;51.278;22.550;2023-03-04T02:34:49;98667.34;;;0.88;70.35
72855;BME280;60991;51.278;22.550;2023-03-04T02:36:20;98671.53;;;0.83;69.63
72855;BME280;60991;51.278;22.550;2023-03-04T02:37:51;98660.03;;;0.77;70.06
72855;BME280;60991;51.278;22.550;2023-03-04T02:40:54;98658.41;;;0.76;70.53
72855;BME280;60991;51.278;22.550;2023-03-04T02:42:26;98658.03;;;0.79;70.17
72855;BME280;60991;51.278;22.550;2023-03-04T02:43:56;98654.06;;;0.83;70.52
72855;BME280;60991;51.278;22.550;2023-03-04T02:45:47;98649.94;;;1.02;69.96
72855;BME280;60991;51.278;22.550;2023-03-04T02:47:18;98644.13;;;1.07;69.76
72855;BME280;60991;51.278;22.550;2023-03-04T02:48:49;98642.75;;;1.11;69.50
72855;BME280;60991;51.278;22.550;2023-03-04T02:50:20;98642.69;;;1.04;69.57
72855;BME280;60991;51.278;22.550;2023-03-04T02:51:52;98639.47;;;1.02;69.10
72855;BME280;60991;51.278;22.550;2023-03-04T02:53:22;98634.00;;;0.90;69.99
72855;BME280;60991;51.278;22.550;2023-03-04T02:54:53;98642.22;;;0.87;69.95
72855;BME280;60991;51.278;22.550;2023-03-04T02:56:23;98634.38;;;0.87;69.96
72855;BME280;60991;51.278;22.550;2023-03-04T02:57:53;98630.91;;;0.80;70.08
72855;BME280;60991;51.278;22.550;2023-03-04T02:59:23;98628.50;;;0.79;70.34
72855;BME280;60991;51.278;22.550;2023-03-04T03:00:53;98628.69;;;0.77;70.78
72855;BME280;60991;51.278;22.550;2023-03-04T03:02:25;98615.31;;;0.93;70.74
72855;BME280;60991;51.278;22.550;2023-03-04T03:03:55;98620.09;;;0.83;70.66
72855;BME280;60991;51.278;22.550;2023-03-04T03:05:28;98617.66;;;0.82;70.68
72855;BME280;60991;51.278;22.550;2023-03-04T03:07:00;98608.25;;;0.87;70.56
72855;BME280;60991;51.278;22.550;2023-03-04T03:08:30;98602.84;;;0.89;70.53
72855;BME280;60991;51.278;22.550;2023-03-04T03:10:00;98608.22;;;0.81;70.68
72855;BME280;60991;51.278;22.550;2023-03-04T03:11:31;98604.19;;;0.78;70.67
72855;BME280;60991;51.278;22.550;2023-03-04T03:13:02;98593.72;;;0.78;70.94
72855;BME280;60991;51.278;22.550;2023-03-04T03:14:32;98587.50;;;0.73;70.54
72855;BME280;60991;51.278;22.550;2023-03-04T03:16:02;98589.94;;;0.81;70.79
72855;BME280;60991;51.278;22.550;2023-03-04T03:17:33;98571.66;;;0.81;71.01
72855;BME280;60991;51.278;22.550;2023-03-04T03:19:03;98562.59;;;0.77;70.96
72855;BME280;60991;51.278;22.550;2023-03-04T03:20:33;98535.66;;;0.76;70.73
72855;BME280;60991;51.278;22.550;2023-03-04T03:22:04;98522.00;;;0.74;70.33
72855;BME280;60991;51.278;22.550;2023-03-04T03:23:34;98534.47;;;0.72;70.51
72855;BME280;60991;51.278;22.550;2023-03-04T03:25:05;98529.84;;;0.74;71.17
72855;BME280;60991;51.278;22.550;2023-03-04T03:26:36;98528.63;;;0.70;70.67
72855;BME280;60991;51.278;22.550;2023-03-04T03:28:06;98523.75;;;0.60;71.30
72855;BME280;60991;51.278;22.550;2023-03-04T03:29:37;98529.78;;;0.61;71.23
72855;BME280;60991;51.278;22.550;2023-03-04T03:31:07;98522.13;;;0.59;70.94
72855;BME280;60991;51.278;22.550;2023-03-04T03:32:37;98523.16;;;0.65;70.92
72855;BME280;60991;51.278;22.550;2023-03-04T03:34:07;98531.66;;;0.74;70.85
72855;BME280;60991;51.278;22.550;2023-03-04T03:35:38;98532.47;;;0.81;70.68
72855;BME280;60991;51.278;22.550;2023-03-04T03:37:08;98522.00;;;0.74;70.95
72855;BME280;60991;51.278;22.550;2023-03-04T03:38:38;98538.25;;;0.69;71.19
72855;BME280;60991;51.278;22.550;2023-03-04T03:40:09;98523.94;;;0.59;71.15
72855;BME280;60991;51.278;22.550;2023-03-04T03:41:40;98518.56;;;0.67;70.95
72855;BME280;60991;51.278;22.550;2023-03-04T03:43:10;98512.53;;;0.66;70.95
72855;BME280;60991;51.278;22.550;2023-03-04T03:44:40;98503.31;;;0.77;70.65
72855;BME280;60991;51.278;22.550;2023-03-04T03:46:11;98505.50;;;0.67;71.18
72855;BME280;60991;51.278;22.550;2023-03-04T03:47:41;98504.66;;;0.60;70.79
72855;BME280;60991;51.278;22.550;2023-03-04T03:49:11;98487.41;;;0.65;70.96
72855;BME280;60991;51.278;22.550;2023-03-04T03:50:41;98495.00;;;0.54;71.41
72855;BME280;60991;51.278;22.550;2023-03-04T03:52:12;98487.56;;;0.51;71.89
72855;BME280;60991;51.278;22.550;2023-03-04T03:53:42;98494.22;;;0.60;72.02
72855;BME280;60991;51.278;22.550;2023-03-04T03:55:12;98494.44;;;0.65;71.58
72855;BME280;60991;51.278;22.550;2023-03-04T03:56:42;98498.88;;;0.71;71.38
72855;BME280;60991;51.278;22.550;2023-03-04T03:58:13;98507.34;;;0.73;70.93
72855;BME280;60991;51.278;22.550;2023-03-04T03:59:43;98496.66;;;0.75;70.40
72855;BME280;60991;51.278;22.550;2023-03-04T04:01:13;98494.25;;;0.66;71.51
72855;BME280;60991;51.278;22.550;2023-03-04T04:02:43;98507.53;;;0.72;71.01
72855;BME280;60991;51.278;22.550;2023-03-04T04:04:13;98493.47;;;0.73;71.19
72855;BME280;60991;51.278;22.550;2023-03-04T04:05:44;98497.69;;;0.80;70.49
72855;BME280;60991;51.278;22.550;2023-03-04T04:07:14;98491.66;;;0.73;70.83
72855;BME280;60991;51.278;22.550;2023-03-04T04:08:44;98486.63;;;0.78;70.66
72855;BME280;60991;51.278;22.550;2023-03-04T04:10:14;98488.84;;;0.68;71.31
72855;BME280;60991;51.278;22.550;2023-03-04T04:11:45;98505.91;;;0.71;71.20
72855;BME280;60991;51.278;22.550;2023-03-04T04:13:15;98497.09;;;0.72;71.16
72855;BME280;60991;51.278;22.550;2023-03-04T04:14:45;98502.31;;;0.72;71.46
72855;BME280;60991;51.278;22.550;2023-03-04T04:16:15;98502.91;;;0.74;71.55
72855;BME280;60991;51.278;22.550;2023-03-04T04:17:46;98499.69;;;0.78;71.57
72855;BME280;60991;51.278;22.550;2023-03-04T04:19:17;98504.38;;;0.89;71.17
72855;BME280;60991;51.278;22.550;2023-03-04T04:20:50;98496.72;;;0.88;70.81
72855;BME280;60991;51.278;22.550;2023-03-04T04:22:21;98504.97;;;0.91;70.68
72855;BME280;60991;51.278;22.550;2023-03-04T04:23:51;98510.59;;;0.95;70.56
72855;BME280;60991;51.278;22.550;2023-03-04T04:25:21;98501.75;;;0.96;70.69
72855;BME280;60991;51.278;22.550;2023-03-04T04:26:51;98509.81;;;1.01;70.35
72855;BME280;60991;51.278;22.550;2023-03-04T04:28:22;98503.97;;;0.99;70.70
72855;BME280;60991;51.278;22.550;2023-03-04T04:29:52;98517.47;;;1.02;70.48
72855;BME280;60991;51.278;22.550;2023-03-04T04:31:22;98518.25;;;1.03;70.58
72855;BME280;60991;51.278;22.550;2023-03-04T04:32:53;98528.50;;;0.98;70.81
72855;BME280;60991;51.278;22.550;2023-03-04T04:34:23;98521.84;;;0.95;70.85
72855;BME280;60991;51.278;22.550;2023-03-04T04:35:53;98520.03;;;0.89;70.89
72855;BME280;60991;51.278;22.550;2023-03-04T04:37:24;98522.66;;;0.89;71.37
72855;BME280;60991;51.278;22.550;2023-03-04T04:38:54;98526.50;;;1.00;70.39
72855;BME280;60991;51.278;22.550;2023-03-04T04:40:24;98528.06;;;0.88;71.15
72855;BME280;60991;51.278;22.550;2023-03-04T04:41:54;98518.78;;;0.79;71.93
72855;BME280;60991;51.278;22.550;2023-03-04T04:43:24;98519.81;;;0.84;71.60
72855;BME280;60991;51.278;22.550;2023-03-04T04:44:55;98526.47;;;0.87;71.61
72855;BME280;60991;51.278;22.550;2023-03-04T04:46:25;98532.09;;;0.97;71.52
72855;BME280;60991;51.278;22.550;2023-03-04T04:47:56;98520.03;;;0.96;71.65
72855;BME280;60991;51.278;22.550;2023-03-04T04:49:26;98526.88;;;0.97;71.71
72855;BME280;60991;51.278;22.550;2023-03-04T04:50:56;98531.34;;;1.03;71.41
72855;BME280;60991;51.278;22.550;2023-03-04T04:52:26;98523.88;;;1.00;71.23
72855;BME280;60991;51.278;22.550;2023-03-04T04:53:58;98520.06;;;1.02;71.00
72855;BME280;60991;51.278;22.550;2023-03-04T04:55:28;98519.09;;;1.10;70.52
72855;BME280;60991;51.278;22.550;2023-03-04T04:56:58;98509.63;;;1.02;71.14
72855;BME280;60991;51.278;22.550;2023-03-04T04:58:28;98524.91;;;1.06;71.46
72855;BME280;60991;51.278;22.550;2023-03-04T04:59:59;98516.47;;;1.03;71.51
72855;BME280;60991;51.278;22.550;2023-03-04T05:01:30;98522.09;;;1.07;71.35
72855;BME280;60991;51.278;22.550;2023-03-04T05:03:00;98528.69;;;0.96;71.33
72855;BME280;60991;51.278;22.550;2023-03-04T05:04:31;98520.09;;;1.09;71.41
72855;BME280;60991;51.278;22.550;2023-03-04T05:06:02;98522.28;;;1.12;71.30
72855;BME280;60991;51.278;22.550;2023-03-04T05:07:33;98526.53;;;1.07;71.59
72855;BME280;60991;51.278;22.550;2023-03-04T05:09:03;98527.31;;;1.07;71.62
72855;BME280;60991;51.278;22.550;2023-03-04T05:10:33;98525.72;;;1.06;71.48
72855;BME280;60991;51.278;22.550;2023-03-04T05:12:04;98515.25;;;1.13;71.59
72855;BME280;60991;51.278;22.550;2023-03-04T05:13:34;98529.94;;;1.14;71.03
72855;BME280;60991;51.278;22.550;2023-03-04T05:15:05;98526.94;;;1.10;71.56
72855;BME280;60991;51.278;22.550;2023-03-04T05:16:35;98516.28;;;1.18;71.09
72855;BME280;60991;51.278;22.550;2023-03-04T05:18:05;98519.09;;;1.17;71.44
72855;BME280;60991;51.278;22.550;2023-03-04T05:19:35;98521.91;;;1.15;71.22
72855;BME280;60991;51.278;22.550;2023-03-04T05:21:06;98516.50;;;1.23;70.85
72855;BME280;60991;51.278;22.550;2023-03-04T05:22:36;98521.94;;;1.35;70.64
72855;BME280;60991;51.278;22.550;2023-03-04T05:24:06;98526.34;;;1.21;71.08
72855;BME280;60991;51.278;22.550;2023-03-04T05:25:37;98523.09;;;1.13;71.65
72855;BME280;60991;51.278;22.550;2023-03-04T05:27:07;98530.13;;;1.12;71.50
72855;BME280;60991;51.278;22.550;2023-03-04T05:28:37;98527.13;;;1.15;71.57
72855;BME280;60991;51.278;22.550;2023-03-04T05:30:08;98520.09;;;1.09;71.63
72855;BME280;60991;51.278;22.550;2023-03-04T05:31:42;98523.31;;;1.11;71.49
72855;BME280;60991;51.278;22.550;2023-03-04T05:33:14;98532.34;;;1.09;71.81
72855;BME280;60991;51.278;22.550;2023-03-04T05:34:44;98519.72;;;1.19;71.30
72855;BME280;60991;51.278;22.550;2023-03-04T05:36:15;98520.09;;;1.16;70.88
72855;BME280;60991;51.278;22.550;2023-03-04T05:37:45;98513.88;;;1.10;71.61
72855;BME280;60991;51.278;22.550;2023-03-04T05:39:15;98524.91;;;1.12;71.31
72855;BME280;60991;51.278;22.550;2023-03-04T05:40:46;98529.38;;;1.25;71.52
72855;BME280;60991;51.278;22.550;2023-03-04T05:42:16;98534.97;;;1.09;71.76
72855;BME280;60991;51.278;22.550;2023-03-04T05:43:48;98529.94;;;1.07;71.60
72855;BME280;60991;51.278;22.550;2023-03-04T05:45:18;98522.53;;;1.11;71.64
72855;BME280;60991;51.278;22.550;2023-03-04T05:46:48;98536.97;;;1.13;71.63
72855;BME280;60991;51.278;22.550;2023-03-04T05:48:19;98531.16;;;1.11;72.30
72855;BME280;60991;51.278;22.550;2023-03-04T05:49:49;98528.56;;;1.11;71.95
72855;BME280;60991;51.278;22.550;2023-03-04T05:51:21;98533.56;;;1.13;71.78
72855;BME280;60991;51.278;22.550;2023-03-04T05:52:51;98524.53;;;1.09;72.03
72855;BME280;60991;51.278;22.550;2023-03-04T05:54:22;98533.78;;;1.11;72.18
72855;BME280;60991;51.278;22.550;2023-03-04T05:55:52;98534.16;;;1.08;72.06
72855;BME280;60991;51.278;22.550;2023-03-04T05:57:22;98530.56;;;1.22;71.74
72855;BME280;60991;51.278;22.550;2023-03-04T05:58:56;98519.47;;;1.14;71.78
72855;BME280;60991;51.278;22.550;2023-03-04T06:00:26;98522.28;;;1.12;71.93
72855;BME280;60991;51.278;22.550;2023-03-04T06:01:56;98528.75;;;1.10;72.34
72855;BME280;60991;51.278;22.550;2023-03-04T06:03:27;98522.91;;;1.08;72.14
72855;BME280;60991;51.278;22.550;2023-03-04T06:04:57;98527.94;;;1.16;72.07
72855;BME280;60991;51.278;22.550;2023-03-04T06:06:27;98522.75;;;1.29;71.37
72855;BME280;60991;51.278;22.550;2023-03-04T06:07:57;98520.50;;;1.19;71.78
72855;BME280;60991;51.278;22.550;2023-03-04T06:09:27;98525.72;;;1.13;72.23
72855;BME280;60991;51.278;22.550;2023-03-04T06:10:58;98523.31;;;1.18;71.78
72855;BME280;60991;51.278;22.550;2023-03-04T06:12:28;98517.69;;;1.21;71.54
72855;BME280;60991;51.278;22.550;2023-03-04T06:13:58;98517.69;;;1.21;71.73
72855;BME280;60991;51.278;22.550;2023-03-04T06:15:28;98509.84;;;1.14;71.67
72855;BME280;60991;51.278;22.550;2023-03-04T06:16:59;98509.44;;;1.11;71.85
72855;BME280;60991;51.278;22.550;2023-03-04T06:18:29;98518.91;;;1.25;71.66
72855;BME280;60991;51.278;22.550;2023-03-04T06:19:59;98521.31;;;1.20;71.74
72855;BME280;60991;51.278;22.550;2023-03-04T06:21:29;98514.91;;;1.29;71.88
72855;BME280;60991;51.278;22.550;2023-03-04T06:23:00;98515.31;;;1.26;72.29
72855;BME280;60991;51.278;22.550;2023-03-04T06:24:30;98507.88;;;1.29;71.97
72855;BME280;60991;51.278;22.550;2023-03-04T06:26:00;98515.50;;;1.31;71.84
72855;BME280;60991;51.278;22.550;2023-03-04T06:27:30;98523.13;;;1.32;71.97
72855;BME280;60991;51.278;22.550;2023-03-04T06:29:01;98513.91;;;1.30;71.38
72855;BME280;60991;51.278;22.550;2023-03-04T06:30:31;98516.28;;;1.31;71.26
72855;BME280;60991;51.278;22.550;2023-03-04T06:32:01;98510.88;;;1.33;71.90
72855;BME280;60991;51.278;22.550;2023-03-04T06:33:32;98506.84;;;1.37;72.01
72855;BME280;60991;51.278;22.550;2023-03-04T06:35:02;98515.13;;;1.41;71.68
72855;BME280;60991;51.278;22.550;2023-03-04T06:36:33;98513.31;;;1.48;71.51
72855;BME280;60991;51.278;22.550;2023-03-04T06:38:03;98511.28;;;1.50;71.13
72855;BME280;60991;51.278;22.550;2023-03-04T06:39:34;98510.47;;;1.36;71.28
72855;BME280;60991;51.278;22.550;2023-03-04T06:41:08;98504.63;;;1.34;72.12
72855;BME280;60991;51.278;22.550;2023-03-04T06:42:40;98508.06;;;1.41;71.47
72855;BME280;60991;51.278;22.550;2023-03-04T06:44:10;98505.66;;;1.53;71.42
72855;BME280;60991;51.278;22.550;2023-03-04T06:45:41;98510.28;;;1.57;71.19
72855;BME280;60991;51.278;22.550;2023-03-04T06:47:11;98509.50;;;1.57;71.21
72855;BME280;60991;51.278;22.550;2023-03-04T06:48:42;98497.63;;;1.61;70.61
72855;BME280;60991;51.278;22.550;2023-03-04T06:50:13;98507.28;;;1.67;70.58
72855;BME280;60991;51.278;22.550;2023-03-04T06:51:43;98508.88;;;1.55;71.15
72855;BME280;60991;51.278;22.550;2023-03-04T06:53:14;98502.66;;;1.56;71.15
72855;BME280;60991;51.278;22.550;2023-03-04T06:54:44;98506.28;;;1.61;71.48
72855;BME280;60991;51.278;22.550;2023-03-04T06:56:15;98506.06;;;1.69;70.59
72855;BME280;60991;51.278;22.550;2023-03-04T06:57:45;98498.63;;;1.66;70.28
72855;BME280;60991;51.278;22.550;2023-03-04T06:59:15;98503.88;;;1.66;70.39
72855;BME280;60991;51.278;22.550;2023-03-04T07:00:46;98497.22;;;1.64;70.49
72855;BME280;60991;51.278;22.550;2023-03-04T07:02:16;98496.63;;;1.62;71.10
72855;BME280;60991;51.278;22.550;2023-03-04T07:03:48;98486.34;;;1.60;71.38
72855;BME280;60991;51.278;22.550;2023-03-04T07:05:18;98489.56;;;1.56;71.47
72855;BME280;60991;51.278;22.550;2023-03-04T07:06:49;98485.16;;;1.63;71.33
72855;BME280;60991;51.278;22.550;2023-03-04T07:08:19;98490.34;;;1.69;70.87
72855;BME280;60991;51.278;22.550;2023-03-04T07:09:50;98487.75;;;1.69;70.61
72855;BME280;60991;51.278;22.550;2023-03-04T07:11:21;98484.94;;;1.64;71.09
72855;BME280;60991;51.278;22.550;2023-03-04T07:12:51;98478.53;;;1.67;71.10
72855;BME280;60991;51.278;22.550;2023-03-04T07:14:21;98480.50;;;1.78;70.37
72855;BME280;60991;51.278;22.550;2023-03-04T07:15:52;98482.31;;;1.71;70.30
72855;BME280;60991;51.278;22.550;2023-03-04T07:17:22;98472.84;;;1.77;70.30
72855;BME280;60991;51.278;22.550;2023-03-04T07:18:52;98474.06;;;1.67;71.13
72855;BME280;60991;51.278;22.550;2023-03-04T07:20:23;98470.66;;;1.67;71.28
72855;BME280;60991;51.278;22.550;2023-03-04T07:21:53;98478.09;;;1.70;71.01
72855;BME280;60991;51.278;22.550;2023-03-04T07:23:23;98471.66;;;1.79;71.13
72855;BME280;60991;51.278;22.550;2023-03-04T07:24:54;98485.50;;;1.86;70.84
72855;BME280;60991;51.278;22.550;2023-03-04T07:26:24;98468.44;;;1.84;70.05
72855;BME280;60991;51.278;22.550;2023-03-04T07:27:54;98456.94;;;1.91;70.46
72855;BME280;60991;51.278;22.550;2023-03-04T07:29:24;98472.47;;;1.80;70.54
72855;BME280;60991;51.278;22.550;2023-03-04T07:30:55;98467.03;;;1.81;71.07
72855;BME280;60991;51.278;22.550;2023-03-04T07:32:25;98458.94;;;1.89;70.11
72855;BME280;60991;51.278;22.550;2023-03-04T07:33:57;98462.75;;;1.87;71.03
72855;BME280;60991;51.278;22.550;2023-03-04T07:35:28;98466.38;;;1.86;70.33
72855;BME280;60991;51.278;22.550;2023-03-04T07:36:58;98468.59;;;1.89;70.60
72855;BME280;60991;51.278;22.550;2023-03-04T07:38:28;98459.94;;;1.88;70.18
72855;BME280;60991;51.278;22.550;2023-03-04T07:39:59;98479.09;;;1.82;70.73
72855;BME280;60991;51.278;22.550;2023-03-04T07:41:29;98467.63;;;1.77;71.12
72855;BME280;60991;51.278;22.550;2023-03-04T07:42:59;98474.06;;;1.81;71.01
72855;BME280;60991;51.278;22.550;2023-03-04T07:44:29;98463.59;;;1.74;70.89
72855;BME280;60991;51.278;22.550;2023-03-04T07:46:00;98461.19;;;1.79;71.10
72855;BME280;60991;51.278;22.550;2023-03-04T07:47:31;98473.88;;;1.82;70.77
72855;BME280;60991;51.278;22.550;2023-03-04T07:49:01;98474.88;;;1.74;70.91
72855;BME280;60991;51.278;22.550;2023-03-04T07:50:31;98481.28;;;1.92;70.31
72855;BME280;60991;51.278;22.550;2023-03-04T07:52:04;98484.50;;;2.00;70.65
72855;BME280;60991;51.278;22.550;2023-03-04T07:53:35;98474.03;;;2.00;70.47
72855;BME280;60991;51.278;22.550;2023-03-04T07:55:06;98475.66;;;1.88;70.68
72855;BME280;60991;51.278;22.550;2023-03-04T07:56:36;98468.19;;;1.92;70.38
72855;BME280;60991;51.278;22.550;2023-03-04T07:58:06;98482.50;;;1.89;70.51
72855;BME280;60991;51.278;22.550;2023-03-04T07:59:37;98472.66;;;1.85;71.41
72855;BME280;60991;51.278;22.550;2023-03-04T08:01:12;98473.84;;;1.89;70.98
72855;BME280;60991;51.278;22.550;2023-03-04T08:02:42;98475.44;;;2.03;70.88